Estación Meteorológica Peña el Pijo (Robertgarden) [ 02/03/23 04:32:09 CET ]

Fecha Hora Presion(HPa) Temp (°C) Humedad % Rocio (°C) Viento ( m/s) Direccion Lluvia 1Hora(mm) Lluvia 24H(mm) LLuvia Total(mm)
2010-Sep-23 01:01:12 1015.200 13.5 87 11.4         159.54
2010-Sep-23 02:01:12 1014.700 13.4 88 11.4         159.54
2010-Sep-23 03:05:25 1014.600 13.3 88 11.3         159.54
2010-Sep-23 04:01:11 1013.900 13.6 89 11.8         159.54
2010-Sep-23 05:01:13 1014.100 13.9 90 12.3         159.54
2010-Sep-23 06:01:16 1013.900 14.1 88 12.1         159.54
2010-Sep-23 07:01:16 1013.500 14.0 89 12.2         159.54
2010-Sep-23 08:01:17 1013.500 14.2 89 12.4         159.54
2010-Sep-23 09:01:18 1013.700 14.4 89 12.6         159.54
2010-Sep-23 10:01:13 1013.700 15.5 87 13.4         159.54
2010-Sep-23 11:01:12 1013.800 17.5 82 14.4         159.54
2010-Sep-23 12:01:12 1013.600 19.8 74 15.0         159.54
2010-Sep-23 13:01:13 1013.100 20.6 68 14.5         159.54
2010-Sep-23 14:01:14 1012.300 20.4 62 12.9         159.54
2010-Sep-23 15:01:14 1011.400 20.8 60 12.8         159.54
2010-Sep-23 16:01:13 1011.300 19.5 69 13.7         159.54
2010-Sep-23 17:01:11 1010.600 17.9 83 15.0         159.54
2010-Sep-23 18:01:12 1009.400 16.9 86 14.5         159.54
2010-Sep-23 19:01:14 1009.000 16.9 88 14.9         159.54
2010-Sep-23 20:01:14 1009.700 15.9 90 14.3     1.03 1.03 160.58
2010-Sep-23 21:01:12 1009.600 15.3 91 13.9       1.03 160.58
2010-Sep-23 22:01:17 1010.500 15.1 92 13.8       1.03 160.58
2010-Sep-23 23:01:13 1010.700 14.9 93 13.8       1.03 160.58

Temperatura Máxima:20°    Temperatura Mínima:13°
Presión Máxima:1015.200 Hpa    Presión Mínima:1009.000 Hpa


Volver